Terminal Aerodrome Forecast
Issued by NWS Wichita, KS

Home | Current Version | Previous Version | Text Only | Print | Product List | Glossary On
Versions: 1 2 3 4 5 6 7 8 9 10 11 12 13 14 15
950
FTUS43 KICT 171728
TAFICT
TAF
KICT 171728Z 1718/1818 18013KT P6SM SKC
     FM180000 17008KT P6SM BKN200
     FM181200 16007KT P6SM SCT010 OVC200
      TEMPO 1812/1816 4SM BR BKN010=

USA.gov is the U.S. government's official web portal to all federal, state and local government web resources and services.